createdAt,value
2024-01-26T00:01:56.276Z,7.68
2024-01-26T00:04:26.909Z,3.85
2024-01-26T00:06:56.385Z,5.30
2024-01-26T00:09:25.334Z,3.65
2024-01-26T00:11:53.875Z,8.00
2024-01-26T00:14:22.925Z,2.90
2024-01-26T00:16:51.470Z,6.47
2024-01-26T00:19:20.560Z,4.35
2024-01-26T00:21:50.424Z,6.30
2024-01-26T00:24:21.480Z,3.58
2024-01-26T00:26:51.473Z,5.30
2024-01-26T00:29:20.523Z,3.55
2024-01-26T00:31:48.928Z,4.28
2024-01-26T00:34:17.901Z,4.55
2024-01-26T00:36:46.410Z,4.80
2024-01-26T00:39:18.117Z,3.08
2024-01-26T00:41:46.968Z,2.53
2024-01-26T00:44:15.804Z,2.85
2024-01-26T00:46:44.276Z,3.30
2024-01-26T00:49:13.081Z,3.30
2024-01-26T00:51:41.546Z,3.53
2024-01-26T00:54:10.309Z,2.80
2024-01-26T00:56:40.350Z,2.70
2024-01-26T00:59:09.179Z,4.20
2024-01-26T01:01:38.236Z,4.03
2024-01-26T01:04:07.183Z,9.23
2024-01-26T01:06:35.639Z,10.90
2024-01-26T01:09:06.695Z,6.43
2024-01-26T01:11:35.208Z,5.80
2024-01-26T01:14:05.346Z,3.80
2024-01-26T01:16:35.471Z,4.00
2024-01-26T01:19:04.359Z,2.60
2024-01-26T01:21:32.940Z,3.33
2024-01-26T01:24:01.876Z,3.22
2024-01-26T01:26:30.491Z,2.70
2024-01-26T01:28:59.535Z,2.55
2024-01-26T01:31:29.608Z,2.35
2024-01-26T01:33:58.612Z,2.97
2024-01-26T01:36:27.044Z,3.75
2024-01-26T01:38:56.267Z,4.40
2024-01-26T01:41:25.084Z,2.28
2024-01-26T01:43:57.493Z,3.45
2024-01-26T01:46:26.002Z,2.00
2024-01-26T01:48:56.221Z,3.25
2024-01-26T01:51:25.864Z,7.40
2024-01-26T01:53:54.718Z,3.65
2024-01-26T01:56:24.806Z,3.67
2024-01-26T01:58:54.332Z,3.58
2024-01-26T02:01:22.890Z,4.13
2024-01-26T02:03:51.740Z,1.77
2024-01-26T02:06:21.692Z,5.32
2024-01-26T02:08:50.581Z,2.13
2024-01-26T02:11:19.055Z,3.22
2024-01-26T02:13:47.771Z,3.60
2024-01-26T02:16:16.255Z,3.85
2024-01-26T02:18:45.126Z,3.05
2024-01-26T02:21:13.634Z,3.25
2024-01-26T02:23:44.881Z,2.97
2024-01-26T02:26:13.409Z,2.60
2024-01-26T02:28:42.285Z,4.80
2024-01-26T02:31:10.705Z,3.47
2024-01-26T02:33:39.635Z,3.45
2024-01-26T02:36:09.989Z,3.63
2024-01-26T02:38:38.944Z,2.72
2024-01-26T02:41:08.824Z,1.67
2024-01-26T02:43:37.605Z,4.07
2024-01-26T02:46:11.302Z,2.50
2024-01-26T02:48:40.968Z,2.95
2024-01-26T02:51:09.651Z,3.05
2024-01-26T02:53:40.853Z,3.97
2024-01-26T02:56:11.005Z,2.92
2024-01-26T02:58:39.916Z,2.60
2024-01-26T03:01:08.419Z,2.17
2024-01-26T03:03:37.277Z,3.63
2024-01-26T03:06:07.130Z,5.07
2024-01-26T03:08:36.096Z,1.77
2024-01-26T03:11:04.716Z,2.95
2024-01-26T03:13:35.032Z,1.65
2024-01-26T03:16:04.198Z,3.13
2024-01-26T03:18:33.108Z,2.92
2024-01-26T03:21:02.645Z,3.88
2024-01-26T03:23:34.108Z,3.45
2024-01-26T03:26:02.464Z,2.78
2024-01-26T03:28:31.261Z,3.55
2024-01-26T03:31:01.061Z,2.45
2024-01-26T03:33:30.279Z,2.88
2024-01-26T03:35:58.882Z,2.40
2024-01-26T03:38:27.613Z,2.30
2024-01-26T03:40:56.094Z,2.42
2024-01-26T03:43:24.860Z,3.03
2024-01-26T03:45:53.416Z,4.00
2024-01-26T03:48:23.863Z,3.05
2024-01-26T03:50:52.654Z,2.72
2024-01-26T03:53:21.428Z,2.30
2024-01-26T03:55:49.932Z,2.88
2024-01-26T03:58:18.702Z,1.92
2024-01-26T04:00:47.270Z,3.88
2024-01-26T04:03:16.237Z,3.65
2024-01-26T04:05:46.262Z,3.70
2024-01-26T04:08:15.365Z,2.25
2024-01-26T04:10:43.875Z,3.70
2024-01-26T04:13:12.639Z,2.22
2024-01-26T04:15:41.170Z,2.95
2024-01-26T04:18:10.136Z,3.88
2024-01-26T04:20:38.767Z,5.10
2024-01-26T04:23:08.995Z,4.32
2024-01-26T04:25:37.485Z,5.03
2024-01-26T04:28:06.556Z,3.60
2024-01-26T04:30:35.904Z,4.60
2024-01-26T04:35:33.360Z,2.60
2024-01-26T04:38:02.143Z,4.25
2024-01-26T04:40:31.967Z,4.55
2024-01-26T04:43:00.776Z,6.53
2024-01-26T04:45:29.182Z,6.75
2024-01-26T04:47:58.046Z,9.02
2024-01-26T04:50:26.699Z,5.68
2024-01-26T04:52:55.491Z,5.03
2024-01-26T04:55:24.133Z,3.08
2024-01-26T04:57:54.348Z,3.00
2024-01-26T05:00:22.971Z,3.08
2024-01-26T05:02:52.133Z,4.50
2024-01-26T05:05:20.691Z,3.05
2024-01-26T05:07:49.530Z,6.45
2024-01-26T05:10:18.214Z,3.10
2024-01-26T05:12:46.942Z,6.25
2024-01-26T05:15:16.925Z,4.95
2024-01-26T05:17:46.896Z,7.60
2024-01-26T05:20:15.530Z,11.55
2024-01-26T05:22:44.303Z,5.35
2024-01-26T05:25:12.773Z,5.57
2024-01-26T05:27:42.818Z,10.82
2024-01-26T05:32:41.596Z,6.95
2024-01-26T05:35:10.801Z,4.68
2024-01-26T05:37:39.601Z,3.80
2024-01-26T05:40:09.061Z,4.57
2024-01-26T05:42:37.781Z,3.25
2024-01-26T05:45:07.808Z,4.85
2024-01-26T05:47:36.697Z,3.05
2024-01-26T05:50:08.636Z,5.28
2024-01-26T05:52:37.406Z,2.90
2024-01-26T05:55:06.412Z,3.20
2024-01-26T05:57:35.236Z,4.32
2024-01-26T06:00:03.981Z,3.80
2024-01-26T06:02:32.906Z,3.85
2024-01-26T06:05:01.385Z,4.00
2024-01-26T06:07:31.608Z,3.03
2024-01-26T06:09:59.980Z,5.97
2024-01-26T06:12:28.913Z,3.92
2024-01-26T06:14:57.907Z,4.70
2024-01-26T06:17:26.709Z,2.58
2024-01-26T06:19:55.185Z,4.63
2024-01-26T06:22:24.009Z,4.25
2024-01-26T06:24:55.144Z,2.88
2024-01-26T06:27:23.982Z,3.20
2024-01-26T06:29:52.662Z,3.95
2024-01-26T06:32:21.538Z,3.83
2024-01-26T06:34:50.375Z,2.55
2024-01-26T06:37:19.462Z,4.63
2024-01-26T06:39:47.851Z,7.15
2024-01-26T06:42:22.494Z,4.57
2024-01-26T06:44:50.991Z,5.80
2024-01-26T06:47:19.742Z,3.53
2024-01-26T06:49:48.375Z,4.30
2024-01-26T06:52:16.238Z,2.63
2024-01-26T06:54:44.670Z,4.60
2024-01-26T06:57:13.502Z,2.25
2024-01-26T06:59:43.353Z,3.10
2024-01-26T07:02:12.578Z,10.90
2024-01-26T07:04:41.081Z,4.88
2024-01-26T07:07:09.901Z,6.78
2024-01-26T07:09:38.767Z,2.55
2024-01-26T07:12:08.121Z,3.05
2024-01-26T07:14:36.579Z,3.42
2024-01-26T07:17:07.086Z,3.15
2024-01-26T07:19:35.573Z,4.32
2024-01-26T07:22:06.298Z,5.65
2024-01-26T07:24:34.715Z,5.72
2024-01-26T07:27:03.710Z,9.93
2024-01-26T07:29:33.757Z,5.65
2024-01-26T07:32:02.566Z,5.57
2024-01-26T07:34:32.852Z,4.45
2024-01-26T07:37:01.759Z,7.65
2024-01-26T07:39:30.361Z,6.47
2024-01-26T07:41:59.308Z,7.15
2024-01-26T07:44:27.847Z,6.07
2024-01-26T07:46:56.656Z,5.63
2024-01-26T07:49:25.378Z,13.68
2024-01-26T07:51:55.789Z,9.77
2024-01-26T07:54:24.261Z,10.57
2024-01-26T07:56:53.067Z,15.90
2024-01-26T07:59:21.872Z,30.83
2024-01-26T08:01:51.249Z,20.20
2024-01-26T08:04:20.008Z,24.08
2024-01-26T08:06:48.964Z,14.15
2024-01-26T08:09:20.535Z,16.17
2024-01-26T08:11:49.828Z,11.13
2024-01-26T08:14:19.218Z,12.20
2024-01-26T08:16:48.156Z,5.32
2024-01-26T08:19:17.117Z,7.22
2024-01-26T08:21:46.399Z,7.55
2024-01-26T08:24:15.179Z,7.20
2024-01-26T08:26:45.845Z,4.95
2024-01-26T08:29:14.413Z,12.57
2024-01-26T08:31:43.237Z,6.38
2024-01-26T08:34:12.026Z,7.07
2024-01-26T08:36:41.058Z,4.63
2024-01-26T08:39:13.389Z,10.32
2024-01-26T08:41:44.840Z,7.13
2024-01-26T08:44:14.979Z,6.28
2024-01-26T08:46:43.751Z,6.15
2024-01-26T08:49:12.519Z,4.05
2024-01-26T08:51:42.118Z,5.95
2024-01-26T08:54:11.779Z,5.75
2024-01-26T08:56:43.561Z,9.15
2024-01-26T08:59:12.289Z,4.53
2024-01-26T09:01:42.787Z,6.55
2024-01-26T09:04:11.512Z,6.75
2024-01-26T09:06:40.599Z,4.35
2024-01-26T09:09:09.731Z,9.05
2024-01-26T09:11:41.134Z,5.22
2024-01-26T09:14:16.057Z,4.40
2024-01-26T09:16:52.237Z,6.03
2024-01-26T09:21:51.753Z,5.68
2024-01-26T09:24:20.335Z,8.05
2024-01-26T09:26:51.241Z,8.32
2024-01-26T09:29:19.710Z,11.20
2024-01-26T09:31:50.178Z,10.40
2024-01-26T09:34:18.879Z,10.27
2024-01-26T09:36:47.802Z,8.48
2024-01-26T09:39:16.754Z,7.10
2024-01-26T09:41:45.880Z,8.23
2024-01-26T09:44:14.534Z,8.68
2024-01-26T09:46:45.241Z,8.90
2024-01-26T09:49:15.361Z,9.43
2024-01-26T09:51:44.460Z,30.55
2024-01-26T09:54:15.756Z,20.15
2024-01-26T09:56:45.389Z,174.50
2024-01-26T09:59:13.892Z,67.20
2024-01-26T10:01:43.542Z,15.38
2024-01-26T10:04:12.186Z,15.27
2024-01-26T10:06:43.157Z,6.25
2024-01-26T10:09:14.025Z,9.32
2024-01-26T10:11:42.924Z,6.78
2024-01-26T10:14:11.430Z,8.27
2024-01-26T10:16:40.311Z,10.50
2024-01-26T10:19:09.252Z,7.82
2024-01-26T10:21:40.778Z,7.78
2024-01-26T10:24:12.235Z,8.57
2024-01-26T10:26:41.058Z,9.65
2024-01-26T10:29:11.694Z,12.27
2024-01-26T10:31:42.913Z,7.45
2024-01-26T10:34:17.307Z,9.75
2024-01-26T10:36:48.247Z,7.85
2024-01-26T10:39:23.646Z,11.35
2024-01-26T10:41:54.705Z,7.22
2024-01-26T10:44:24.096Z,9.23
2024-01-26T10:46:54.873Z,11.23
2024-01-26T10:49:24.818Z,12.50
2024-01-26T10:51:57.356Z,10.73
2024-01-26T10:54:27.668Z,10.60
2024-01-26T10:56:56.877Z,13.65
2024-01-26T10:59:27.520Z,10.93
2024-01-26T11:01:57.556Z,18.77
2024-01-26T11:07:03.765Z,14.93
2024-01-26T11:09:36.907Z,14.68
2024-01-26T11:12:05.938Z,10.98
2024-01-26T11:14:35.051Z,13.30
2024-01-26T11:17:13.747Z,12.30
2024-01-26T11:19:50.987Z,13.73
2024-01-26T11:22:22.566Z,9.73
2024-01-26T11:24:56.926Z,12.18
2024-01-26T11:27:26.490Z,13.52
2024-01-26T11:29:55.398Z,14.45
2024-01-26T11:32:25.491Z,13.05
2024-01-26T11:35:01.309Z,16.52
2024-01-26T11:37:32.312Z,8.32
2024-01-26T11:40:01.697Z,14.13
2024-01-26T11:42:31.361Z,15.48
2024-01-26T11:45:09.657Z,11.80
2024-01-26T11:47:40.723Z,10.80
2024-01-26T11:50:10.886Z,14.45
2024-01-26T11:52:41.223Z,10.77
2024-01-26T11:55:13.528Z,13.45
2024-01-26T11:57:43.526Z,9.50
2024-01-26T12:00:14.275Z,12.05
2024-01-26T12:02:42.980Z,11.05
2024-01-26T12:05:12.430Z,9.85
2024-01-26T12:07:43.275Z,11.45
2024-01-26T12:10:15.940Z,13.55
2024-01-26T12:12:45.827Z,11.32
2024-01-26T12:15:14.830Z,12.43
2024-01-26T12:17:43.567Z,8.63
2024-01-26T12:20:13.921Z,11.77
2024-01-26T12:22:47.328Z,13.68
2024-01-26T12:25:17.109Z,11.52
2024-01-26T12:27:45.830Z,11.25
2024-01-26T12:30:15.429Z,14.57
2024-01-26T12:32:44.296Z,11.95
2024-01-26T12:35:13.323Z,14.45
2024-01-26T12:37:41.837Z,13.93
2024-01-26T12:40:13.681Z,12.57
2024-01-26T12:42:42.163Z,13.35
2024-01-26T12:45:11.313Z,10.35
2024-01-26T12:47:39.914Z,13.63
2024-01-26T12:50:10.077Z,12.13
2024-01-26T12:52:38.629Z,13.82
2024-01-26T12:55:07.725Z,11.68
2024-01-26T12:57:37.655Z,9.88
2024-01-26T13:00:08.180Z,13.18
2024-01-26T13:02:36.984Z,17.40
2024-01-26T13:05:06.541Z,72.35
2024-01-26T13:07:35.629Z,20.02
2024-01-26T13:10:05.947Z,11.68
2024-01-26T13:12:34.702Z,9.32
2024-01-26T13:15:05.556Z,11.25
2024-01-26T13:17:34.097Z,17.42
2024-01-26T13:20:08.758Z,11.93
2024-01-26T13:22:44.704Z,17.23
2024-01-26T13:25:13.466Z,18.60
2024-01-26T13:27:42.146Z,10.80
2024-01-26T13:30:14.145Z,11.05
2024-01-26T13:32:45.184Z,19.73
2024-01-26T13:35:15.079Z,14.73
2024-01-26T13:37:43.628Z,20.10
2024-01-26T13:40:14.241Z,14.93
2024-01-26T13:42:44.223Z,12.88
2024-01-26T13:45:14.609Z,16.13
2024-01-26T13:47:48.773Z,16.17
2024-01-26T13:50:20.376Z,19.17
2024-01-26T13:52:49.636Z,17.02
2024-01-26T13:55:21.279Z,13.77
2024-01-26T13:57:49.797Z,17.15
2024-01-26T14:00:22.830Z,15.07
2024-01-26T14:02:53.007Z,22.25
2024-01-26T14:05:22.304Z,13.80
2024-01-26T14:07:51.820Z,23.20
2024-01-26T14:10:20.948Z,17.60
2024-01-26T14:12:49.461Z,20.15
2024-01-26T14:15:21.192Z,16.02
2024-01-26T14:17:49.986Z,16.50
2024-01-26T14:20:22.703Z,20.48
2024-01-26T14:22:52.932Z,22.10
2024-01-26T14:25:22.504Z,14.90
2024-01-26T14:27:51.431Z,17.60
2024-01-26T14:30:24.073Z,18.58
2024-01-26T14:32:53.493Z,19.23
2024-01-26T14:35:23.115Z,23.15
2024-01-26T14:37:53.073Z,18.63
2024-01-26T14:40:22.948Z,18.88
2024-01-26T14:42:51.866Z,11.30
2024-01-26T14:45:23.351Z,20.42
2024-01-26T14:47:53.526Z,15.98
2024-01-26T14:50:23.214Z,20.15
2024-01-26T14:52:52.575Z,22.65
2024-01-26T14:55:22.516Z,15.15
2024-01-26T14:57:51.239Z,15.57
2024-01-26T15:00:22.745Z,27.70
2024-01-26T15:02:51.889Z,17.27
2024-01-26T15:05:23.857Z,23.33
2024-01-26T15:07:54.942Z,18.67
2024-01-26T15:10:24.657Z,16.95
2024-01-26T15:12:53.574Z,16.00
2024-01-26T15:15:24.261Z,17.42
2024-01-26T15:17:52.979Z,21.85
2024-01-26T15:20:22.077Z,16.63
2024-01-26T15:22:53.015Z,16.67
2024-01-26T15:25:22.569Z,25.40
2024-01-26T15:27:51.505Z,15.00
2024-01-26T15:30:20.495Z,17.88
2024-01-26T15:32:50.511Z,20.00
2024-01-26T15:35:19.299Z,17.35
2024-01-26T15:37:47.760Z,19.65
2024-01-26T15:40:17.572Z,19.67
2024-01-26T15:42:46.053Z,23.23
2024-01-26T15:45:15.344Z,19.55
2024-01-26T15:47:44.428Z,19.00
2024-01-26T15:50:15.004Z,21.35
2024-01-26T15:52:46.579Z,20.13
2024-01-26T15:55:16.817Z,22.17
2024-01-26T15:57:45.603Z,20.30
2024-01-26T16:00:15.663Z,19.75
2024-01-26T16:02:44.637Z,25.45
2024-01-26T16:05:15.086Z,18.08
2024-01-26T16:07:43.727Z,28.70
2024-01-26T16:10:12.939Z,21.02
2024-01-26T16:12:41.570Z,24.15
2024-01-26T16:15:11.904Z,17.77
2024-01-26T16:17:40.983Z,19.45
2024-01-26T16:20:12.789Z,21.85
2024-01-26T16:22:42.823Z,23.13
2024-01-26T16:25:11.751Z,16.30
2024-01-26T16:27:40.571Z,13.82
2024-01-26T16:30:13.044Z,20.67
2024-01-26T16:32:41.746Z,17.95
2024-01-26T16:35:11.436Z,25.45
2024-01-26T16:37:39.894Z,15.75
2024-01-26T16:40:11.612Z,15.27
2024-01-26T16:42:40.194Z,21.33
2024-01-26T16:45:10.044Z,25.05
2024-01-26T16:47:38.818Z,28.55
2024-01-26T16:50:08.802Z,27.52
2024-01-26T16:52:37.293Z,21.67
2024-01-26T16:55:07.120Z,24.90
2024-01-26T16:57:37.048Z,28.42
2024-01-26T17:00:06.897Z,25.38
2024-01-26T17:02:36.114Z,30.52
2024-01-26T17:05:05.286Z,33.75
2024-01-26T17:07:35.177Z,30.95
2024-01-26T17:10:04.222Z,32.35
2024-01-26T17:12:32.891Z,36.38
2024-01-26T17:15:03.976Z,33.03
2024-01-26T17:17:32.514Z,33.00
2024-01-26T17:20:01.384Z,30.00
2024-01-26T17:22:30.123Z,34.80
2024-01-26T17:24:59.319Z,34.72
2024-01-26T17:27:27.979Z,36.28
2024-01-26T17:29:57.621Z,31.35
2024-01-26T17:32:27.788Z,29.10
2024-01-26T17:34:58.998Z,25.80
2024-01-26T17:37:27.737Z,21.35
2024-01-26T17:40:02.396Z,33.63
2024-01-26T17:42:33.488Z,26.00
2024-01-26T17:45:02.899Z,35.78
2024-01-26T17:47:33.222Z,24.58
2024-01-26T17:50:02.938Z,25.70
2024-01-26T17:52:33.144Z,24.30
2024-01-26T17:55:02.203Z,30.33
2024-01-26T17:57:30.906Z,27.80
2024-01-26T18:00:00.307Z,24.13
2024-01-26T18:02:29.760Z,26.98
2024-01-26T18:05:00.251Z,27.20
2024-01-26T18:07:28.951Z,24.25
2024-01-26T18:09:57.816Z,24.25
2024-01-26T18:12:26.543Z,23.38
2024-01-26T18:14:55.850Z,22.83
2024-01-26T18:17:24.393Z,14.95
2024-01-26T18:19:53.544Z,22.70
2024-01-26T18:22:23.582Z,23.08
2024-01-26T18:24:52.576Z,21.05
2024-01-26T18:27:21.773Z,17.02
2024-01-26T18:29:50.911Z,19.50
2024-01-26T18:32:19.719Z,23.15
2024-01-26T18:34:48.948Z,17.50
2024-01-26T18:37:17.928Z,17.30
2024-01-26T18:39:49.223Z,14.25
2024-01-26T18:42:18.104Z,20.38
2024-01-26T18:44:47.370Z,17.73
2024-01-26T18:47:16.946Z,18.10
2024-01-26T18:49:49.212Z,17.35
2024-01-26T18:52:19.718Z,14.23
2024-01-26T18:54:51.763Z,17.58
2024-01-26T18:57:20.368Z,11.80
2024-01-26T18:59:50.216Z,16.75
2024-01-26T19:02:18.865Z,13.82
2024-01-26T19:04:48.205Z,17.27
2024-01-26T19:07:18.213Z,21.40
2024-01-26T19:12:17.891Z,17.40
2024-01-26T19:14:47.304Z,17.17
2024-01-26T19:17:15.941Z,17.38
2024-01-26T19:19:45.605Z,17.17
2024-01-26T19:22:14.736Z,14.38
2024-01-26T19:24:43.651Z,15.63
2024-01-26T19:27:12.960Z,15.90
2024-01-26T19:29:43.435Z,17.17
2024-01-26T19:32:12.797Z,17.13
2024-01-26T19:37:10.967Z,16.45
2024-01-26T19:39:40.311Z,15.80
2024-01-26T19:42:08.777Z,15.13
2024-01-26T19:44:37.787Z,16.63
2024-01-26T19:47:08.179Z,16.75
2024-01-26T19:49:37.079Z,16.17
2024-01-26T19:52:06.367Z,15.52
2024-01-26T19:57:03.617Z,16.20
2024-01-26T19:59:33.075Z,15.65
2024-01-26T20:02:01.730Z,16.65
2024-01-26T20:04:32.095Z,16.63
2024-01-26T20:07:01.608Z,19.88
2024-01-26T20:09:31.120Z,19.20
2024-01-26T20:12:00.988Z,12.60
2024-01-26T20:14:30.171Z,10.63
2024-01-26T20:16:58.785Z,11.32
2024-01-26T20:19:57.969Z,13.00
2024-01-26T20:22:26.539Z,11.93
2024-01-26T20:24:55.439Z,9.88
2024-01-26T20:27:24.460Z,7.55
2024-01-26T20:29:54.314Z,5.13
2024-01-26T20:32:27.351Z,5.50
2024-01-26T20:34:58.431Z,7.00
2024-01-26T20:37:26.978Z,5.10
2024-01-26T20:39:55.841Z,6.45
2024-01-26T20:42:27.329Z,8.02
2024-01-26T20:44:56.357Z,7.60
2024-01-26T20:47:25.577Z,6.47
2024-01-26T20:49:54.682Z,5.22
2024-01-26T20:52:26.637Z,5.13
2024-01-26T20:54:54.506Z,8.52
2024-01-26T20:57:23.442Z,6.50
2024-01-26T20:59:52.351Z,6.47
2024-01-26T21:02:22.362Z,5.43
2024-01-26T21:04:51.629Z,5.03
2024-01-26T21:07:20.183Z,8.32
2024-01-26T21:09:52.922Z,6.00
2024-01-26T21:12:21.721Z,10.27
2024-01-26T21:14:53.905Z,16.15
2024-01-26T21:17:23.535Z,8.77
2024-01-26T21:19:52.512Z,9.75
2024-01-26T21:22:20.994Z,8.75
2024-01-26T21:24:51.474Z,7.05
2024-01-26T21:27:20.683Z,7.00
2024-01-26T21:32:23.266Z,16.70
2024-01-26T21:34:52.631Z,13.10
2024-01-26T21:37:21.465Z,7.35
2024-01-26T21:39:52.589Z,16.00
2024-01-26T21:42:23.430Z,13.25
2024-01-26T21:44:54.183Z,13.65
2024-01-26T21:47:24.435Z,13.00
2024-01-26T21:49:53.471Z,14.23
2024-01-26T21:52:22.104Z,15.40
2024-01-26T21:54:52.632Z,11.70
2024-01-26T21:57:21.448Z,11.63
2024-01-26T21:59:52.424Z,18.23
2024-01-26T22:02:22.761Z,6.05
2024-01-26T22:04:51.671Z,15.38
2024-01-26T22:07:21.084Z,16.35
2024-01-26T22:09:51.441Z,14.57
2024-01-26T22:12:20.020Z,14.23
2024-01-26T22:14:49.206Z,13.75
2024-01-26T22:17:17.739Z,17.23
2024-01-26T22:19:46.982Z,9.57
2024-01-26T22:22:15.594Z,20.85
2024-01-26T22:24:44.872Z,20.30
2024-01-26T22:27:14.831Z,19.05
2024-01-26T22:29:43.805Z,12.95
2024-01-26T22:32:12.343Z,9.50
2024-01-26T22:34:41.286Z,14.05
2024-01-26T22:37:09.917Z,11.85
2024-01-26T22:39:38.801Z,18.85
2024-01-26T22:42:07.691Z,16.42
2024-01-26T22:44:37.951Z,12.48
2024-01-26T22:47:07.131Z,9.68
2024-01-26T22:49:36.070Z,20.30
2024-01-26T22:52:04.852Z,13.10
2024-01-26T22:54:33.873Z,15.13
2024-01-26T22:57:02.290Z,19.77
2024-01-26T22:59:31.200Z,16.95
2024-01-26T23:02:01.196Z,16.13
2024-01-26T23:04:30.058Z,11.77
2024-01-26T23:06:58.765Z,19.58
2024-01-26T23:09:27.913Z,16.35
2024-01-26T23:11:56.451Z,16.30
2024-01-26T23:14:25.596Z,13.73
2024-01-26T23:16:54.099Z,16.25
2024-01-26T23:19:28.075Z,11.27
2024-01-26T23:21:58.265Z,20.80
2024-01-26T23:24:27.204Z,13.35
2024-01-26T23:30:46.865Z,14.10
2024-01-26T23:33:15.857Z,11.55
2024-01-26T23:35:46.097Z,10.27
2024-01-26T23:38:15.084Z,13.90
2024-01-26T23:40:43.739Z,16.20
2024-01-26T23:43:12.565Z,20.80
2024-01-26T23:45:41.068Z,14.57
2024-01-26T23:48:11.940Z,21.20
2024-01-26T23:50:40.784Z,13.95
2024-01-26T23:53:11.009Z,11.80
2024-01-26T23:55:39.475Z,14.68
2024-01-26T23:58:08.863Z,12.27
